Barksdale Air Force Base

KBAD · 路易斯安那州, 美国

METAR的历史 KBAD · Barksdale Air Force Base

下面你可以看到过去几天的METARs。 选择年份以浏览从2007年开始的旧METAR。

2022年12月8日

时间 代码 天气 温度 能见度 天花板 METAR/SPECI
00:55
V
19 °C 10 mi 7.000 ft 170° 170° 8 kt METAR KBAD 080655Z AUTO 17008KT 10SM OVC070 19/18 A3017 RMK AO2 SLP219 T01910179
00:55
V
19 °C 10 mi 7.000 ft 170° 170° 8 kt METAR KBAD 080655Z AUTO 17008KT 10SM OVC070 19/18 A3017 RMK AO2 SLP219 T01910179

2022年12月7日

时间 代码 天气 温度 能见度 天花板 METAR/SPECI
23:55
V
19 °C 10 mi - 170° 170° 8 kt METAR KBAD 080555Z 17008KT 10SM SCT070 19/18 A3019 RMK AO2A RAB04E14 SLPNO P0000 60000 T01930178 10207 20178 402760178 50000
23:14
V
19 °C 10 mi - 170° 170° 8 kt METAR KBAD 080514Z AUTO 17008KT 10SM FEW046 19/18 A3019 RMK AO2 VIS 2 1/4 RWY33 RAB04E14 SLPNO
23:04
V
19 °C 10 mi - 170° 170° 7 kt METAR KBAD 080504Z AUTO 17007KT 10SM -RA SCT045 SCT065 19/18 A3019 RMK AO2 VIS 2 1/4 RWY33 RAB04 SLPNO
22:55
V
19 °C 10 mi - 170° 170° 5 kt METAR KBAD 080455Z AUTO 17005KT 10SM FEW045 SCT070 19/17 A3019 RMK AO2 VIS 2 1/4 RWY33 RAB44E46 SLPNO P0000 T01860171
22:44
V
18 °C 10 mi - 170° 170° 5 kt METAR KBAD 080444Z AUTO 17005KT 10SM -RA FEW070 18/17 A3019 RMK AO2 VIS 2 1/4 RWY33 RAB44 SLPNO
21:55
V
18 °C 10 mi - 160° 160° 5 kt METAR KBAD 080355Z AUTO 16005KT 10SM CLR 18/16 A3019 RMK AO2 VIS 2 1/2 RWY33 SLPNO T01800160
20:55
V
19 °C 10 mi - 170° 170° 5 kt METAR KBAD 080255Z AUTO 17005KT 10SM CLR 19/16 A3019 RMK AO2 VIS 1 RWY33 SLP226 T01900162 51006
19:55
V
19 °C 10 mi - 160° 160° 6 kt METAR KBAD 080155Z AUTO 16006KT 10SM CLR 19/16 A3018 RMK AO2 VIS 1 1/4 RWY33 SLP223 T01890161
18:55
V
20 °C 10 mi - 170° 170° 6 kt METAR KBAD 080055Z AUTO 17006KT 10SM CLR 20/16 A3018 RMK AO2 VIS 1 1/2 RWY33 SLP223 T01950163
17:55
V
21 °C 10 mi - 170° 170° 6 kt METAR KBAD 072355Z AUTO 17006KT 10SM CLR 21/17 A3017 RMK AO2 SLP220 60000 T02080166 10276 20208 52009
16:55
V
25 °C 10 mi - 200° 200° 6 kt METAR KBAD 072255Z AUTO 20006KT 10SM CLR 25/17 A3016 RMK AO2 SLP216 T02510173
15:55
V
27 °C 10 mi - 200° 200° 6 kt METAR KBAD 072155Z AUTO 20006KT 10SM FEW047 27/18 A3015 RMK AO2 SLP212 T02650175
14:55
V
27 °C 10 mi - 200° 200° 9 kt METAR KBAD 072055Z AUTO 20009KT 10SM FEW040 27/18 A3014 RMK AO2 RAE1955DZB1955E1956RAB1956E02 SLP209 P0000 60000 T02720176
14:02
V
27 °C 10 mi - 200° 200° 10 kt METAR KBAD 072002Z AUTO 20010KT 10SM FEW036 27/18 A3014 RMK AO2 RAE1955DZB1955E1956RAB1956E02 SLP209
13:55
V
28 °C 10 mi - 200° 200° 12 kt METAR KBAD 071955Z AUTO 20012KT 10SM -RA FEW036 28/18 A3014 RMK AO2 RAE1858RAB25E35RAB47 SLP209 P0000 T02750176
13:47
V
27 °C 10 mi - 180° 180° 14 kt SPECI KBAD 071947Z AUTO 18014KT 10SM -RA FEW036 27/18 A3014 RMK AO2 RAE1858RAB25E35RAB47 SLP209
13:35
V
27 °C 10 mi - 190° 190° 12 - 17 kt METAR KBAD 071935Z AUTO 19012G17KT 10SM SCT035 27/18 A3014 RMK AO2 RAE1858RAB25E35 SLP209
13:25
V
27 °C 10 mi - 170° 170° 11 kt METAR KBAD 071925Z AUTO 17011KT 10SM -RA FEW037 27/18 A3015 RMK AO2 RAE1858RAB25 SLP212
12:58
V
27 °C 10 mi - 190° 190° 10 kt METAR KBAD 071858Z AUTO 19010KT 10SM SCT035 27/18 A3016 RMK AO2 RAE58 SLP216
12:55
V
27 °C 10 mi - 190° 190° 13 kt METAR KBAD 071855Z AUTO 19013KT 10SM -RA SCT035 27/18 A3016 RMK AO2 RAB22E44RAB49 SLP216 P0000 T02690179
12:44
V
27 °C 10 mi - 220° 220° 8 kt METAR KBAD 071844Z AUTO 22008KT 10SM FEW034 27/18 A3016 RMK AO2 RAB22E44 SLP216
12:14
V
27 °C 10 mi - 220° 220° 6 kt METAR KBAD 071814Z AUTO 22006KT 10SM -RA FEW030 27/18 A3017 RMK AO2 RAB14 PRESFR SLP219
11:55
V
26 °C 10 mi - 230° 230° 6 kt METAR KBAD 071755Z AUTO 23006KT 10SM CLR 26/18 A3019 RMK AO2 SLP226 60000 T02630182 10263 20199 58003
10:55
V
24 °C 10 mi - 210° 210° 8 kt METAR KBAD 071655Z AUTO 21008KT 10SM SCT050 24/19 A3022 RMK AO2 RAB01E05DZB05E11RAB11E12 SLP236 P0000 T02400186
10:12
V
22 °C 10 mi 4.800 ft 210° 210° 4 kt METAR KBAD 071612Z AUTO 21004KT 10SM OVC048 22/19 A3023 RMK AO2 RAB01E05DZB05E11RAB11E12 SLP240
10:01
V
22 °C 10 mi 4.700 ft 200° 200° 6 kt METAR KBAD 071601Z AUTO 20006KT 10SM -RA OVC047 22/19 A3023 RMK AO2 RAB01 SLP240
09:55
V
22 °C 10 mi 4.900 ft 200° 200° 6 kt METAR KBAD 071555Z AUTO 20006KT 10SM OVC049 22/19 A3022 RMK AO2 SLP236 T02220188
08:55
V
21 °C 10 mi 6.000 ft 170° 170° 8 kt METAR KBAD 071455Z AUTO 17008KT 10SM SCT037 BKN060 21/19 A3020 RMK AO2 SLP230 T02120187 52016
07:55
V
21 °C 10 mi - 180° 180° 7 kt METAR KBAD 071355Z AUTO 18007KT 10SM FEW029 SCT035 21/19 A3019 RMK AO2 SLP226 T02060192
06:55
M
20 °C 10 mi 2.400 ft 170° 170° 4 kt METAR KBAD 071255Z AUTO 17004KT 10SM OVC024 20/19 A3017 RMK AO2 SLP220 T02010189
06:35
M
20 °C 10 mi 2.000 ft 170° 170° 5 kt METAR KBAD 071235Z AUTO 17005KT 10SM OVC020 20/19 A3016 RMK AO2 SLP216
05:55
M
20 °C 10 mi 1.700 ft 170° 170° 5 kt METAR KBAD 071155Z AUTO 17005KT 10SM OVC017 20/19 A3015 RMK AO2 SLP213 60000 T02000188 10215 20200 52012
04:55
M
20 °C 10 mi 1.500 ft 170° 170° 6 kt METAR KBAD 071055Z 17006KT 10SM OVC015 20/19 A3013 RMK AO2A SLP206 T02020190
04:15
M
20 °C 10 mi 1.500 ft 170° 170° 6 kt METAR KBAD 071015Z AUTO 17006KT 10SM BKN015 OVC140 20/19 A3012 RMK AO2 SLP202
04:05
V
20 °C 10 mi 14.000 ft 170° 170° 6 kt METAR KBAD 071005Z AUTO 17006KT 10SM SCT015 BKN140 OVC190 20/19 A3012 RMK AO2 SLP202
03:55
M
20 °C 10 mi 1.500 ft 170° 170° 6 kt METAR KBAD 070955Z 17006KT 10SM BKN015 BKN140 20/19 A3012 RMK AO2A RAB0858E08 SLP202 P0000 T02010189
03:08
V
21 °C 10 mi 11.000 ft 180° 180° 7 kt METAR KBAD 070908Z AUTO 18007KT 10SM FEW027 BKN110 BKN150 21/19 A3012 RMK AO2 RAB0858E08 SLP202
02:58
V
21 °C 10 mi 14.000 ft 180° 180° 5 kt SPECI KBAD 070858Z 18005KT 10SM -RA FEW040 SCT110 BKN140 21/19 A3011 RMK AO2A RAB58 SLP199
02:55
V
21 °C 10 mi 14.000 ft 180° 180° 6 kt METAR KBAD 070855Z 18006KT 10SM SCT110 BKN140 21/19 A3011 RMK AO2A RAE0758 SLP199 P0000 60000 T02070192 52016
01:58
V
21 °C 10 mi - 190° 190° 6 kt METAR KBAD 070758Z AUTO 19006KT 10SM FEW110 SCT140 21/19 A3010 RMK AO2 RAE58 SLP196
01:55
V
21 °C 10 mi - 200° 200° 6 kt METAR KBAD 070755Z AUTO 20006KT 10SM -RA SCT110 SCT140 21/19 A3010 RMK AO2 RAB11E33RAB54 SLP196 P0000 T02110192
01:33
V
21 °C 10 mi - 180° 180° 8 kt METAR KBAD 070733Z 18008KT 10SM SCT110 21/19 A3008 RMK AO2A RAB11E33 SLP189
01:11
V
21 °C 10 mi - 180° 180° 9 kt METAR KBAD 070711Z AUTO 18009KT 10SM -RA SCT130 21/19 A3007 RMK AO2 RAB11 SLP185
00:55
V
21 °C 10 mi - 180° 180° 9 kt METAR KBAD 070655Z AUTO 18009KT 10SM FEW018 SCT130 21/19 A3007 RMK AO2 SLP185 T02120191

2022年12月6日

时间 代码 天气 温度 能见度 天花板 METAR/SPECI
23:55
V
22 °C 10 mi 15.000 ft 180° 180° 8 kt METAR KBAD 070555Z 18008KT 10SM SCT015 BKN150 22/19 A3006 RMK AO2A RAE0456 SLP182 P0000 60000 T02150192 10221 20209 402500203 52014
22:56
V
21 °C 10 mi 16.000 ft 180° 180° 8 kt METAR KBAD 070456Z AUTO 18008KT 10SM SCT014 SCT050 BKN160 21/19 A3006 RMK AO2 RAE56 SLP182
22:55
V
21 °C 10 mi 16.000 ft 180° 180° 8 kt METAR KBAD 070455Z AUTO 18008KT 10SM -RA SCT014 SCT050 BKN160 21/19 A3006 RMK AO2 RAB0358E08DZB08E13RAB43 SLP182 P0000 T02130192
22:43
V
21 °C 10 mi 17.000 ft 180° 180° 7 kt METAR KBAD 070443Z AUTO 18007KT 10SM -RA FEW050 SCT140 BKN170 21/19 A3005 RMK AO2 RAB0358E08DZB08E13RAB43 SLP179
22:13
V
21 °C 10 mi 14.000 ft 180° 180° 7 kt METAR KBAD 070413Z AUTO 18007KT 10SM FEW017 BKN140 BKN190 21/19 A3005 RMK AO2 RAB0358E08DZB08E13 SLP179
21:58
V
21 °C 10 mi 15.000 ft 170° 170° 7 kt METAR KBAD 070358Z AUTO 17007KT 10SM -RA FEW017 SCT050 BKN150 BKN190 21/19 A3004 RMK AO2 RAB58 SLP175
21:55
V
21 °C 10 mi 15.000 ft 170° 170° 6 kt METAR KBAD 070355Z AUTO 17006KT 10SM FEW017 SCT050 BKN150 BKN190 21/19 A3004 RMK AO2 RAB09E20RAB25E35 SLP175 P0000 T02090188
21:35
V
21 °C 10 mi 4.800 ft 170° 170° 6 kt METAR KBAD 070335Z AUTO 17006KT 10SM FEW028 FEW035 BKN048 BKN150 21/19 A3003 RMK AO2 RAB09E20RAB25E35 SLP172
21:25
V
22 °C 10 mi 4.800 ft 170° 170° 6 kt METAR KBAD 070325Z AUTO 17006KT 10SM -RA FEW021 SCT028 SCT034 BKN048 22/19 A3003 RMK AO2 RAB09E20RAB25 SLP172
21:20
V
21 °C 10 mi 4.800 ft 170° 170° 6 kt METAR KBAD 070320Z AUTO 17006KT 10SM FEW021 SCT028 SCT036 BKN048 21/19 A3003 RMK AO2 RAB09E20 SLP172
21:09
V
21 °C 10 mi 4.800 ft 170° 170° 4 kt METAR KBAD 070309Z AUTO 17004KT 10SM -RA FEW029 SCT041 BKN048 21/19 A3003 RMK AO2 RAB09 SLP172
20:55
V
21 °C 10 mi 4.300 ft 170° 170° 5 kt METAR KBAD 070255Z AUTO 17005KT 10SM FEW026 FEW031 BKN043 21/19 A3002 RMK AO2 SLP169 T02120187 52016
19:55
V
22 °C 10 mi 3.300 ft 180° 180° 7 kt METAR KBAD 070155Z AUTO 18007KT 10SM BKN033 BKN150 22/19 A3001 RMK AO2 SLP165 T02150187
19:15
V
22 °C 10 mi 3.000 ft 180° 180° 7 kt METAR KBAD 070115Z AUTO 18007KT 10SM BKN030 BKN050 OVC150 22/19 A3000 RMK AO2 SLP162
18:55
V
22 °C 10 mi 5.000 ft 180° 180° 5 kt METAR KBAD 070055Z AUTO 18005KT 10SM SCT030 BKN050 BKN160 22/19 A2999 RMK AO2 SLP159 T02180186
18:35
V
22 °C 10 mi 5.000 ft 170° 170° 6 kt METAR KBAD 070035Z AUTO 17006KT 10SM SCT029 SCT035 BKN050 OVC170 22/19 A2998 RMK AO2 SLP155
18:15
M
22 °C 10 mi 2.900 ft 180° 180° 6 kt METAR KBAD 070015Z AUTO 18006KT 10SM BKN029 BKN036 OVC050 22/19 A2998 RMK AO2 CIG 029V035 BKN029 V SCT SLP155
17:55
V
21 °C 10 mi 3.200 ft 170° 170° 6 kt METAR KBAD 062355Z AUTO 17006KT 10SM BKN032 21/19 A2998 RMK AO2 SLP155 60000 T02130187 10250 20213 52012
17:35
M
22 °C 10 mi 2.700 ft 170° 170° 5 kt METAR KBAD 062335Z AUTO 17005KT 10SM BKN027 BKN033 OVC050 22/19 A2997 RMK AO2 CIG 027V050 BKN027 V SCT SLP152
16:55
V
23 °C 10 mi 4.800 ft 190° 190° 7 kt METAR KBAD 062255Z AUTO 19007KT 10SM FEW030 OVC048 23/18 A2997 RMK AO2 SLP152 T02290184
15:55
V
23 °C 10 mi 4.200 ft 200° 200° 8 kt METAR KBAD 062155Z AUTO 20008KT 10SM OVC042 23/19 A2995 RMK AO2 RAB14E33 SLP145 P0000 T02300185
15:33
V
23 °C 10 mi 3.800 ft 220° 220° 9 kt METAR KBAD 062133Z AUTO 22009KT 10SM SCT024 SCT029 OVC038 23/19 A2995 RMK AO2 RAB14E33 SLP145
15:24
M
23 °C 10 mi 2.600 ft 210° 210° 12 kt METAR KBAD 062124Z AUTO 21012KT 10SM -RA BKN026 OVC033 23/19 A2995 RMK AO2 RAB14 CIG 025 RWY33 SLP145
15:14
M
24 °C 10 mi 1.400 ft 210° 210° 11 kt METAR KBAD 062114Z 21011KT 10SM -RA BKN014 24/18 A2995 RMK AO2A RAB14 SLP145
15:06
M
24 °C 10 mi 1.500 ft 220° 220° 8 kt METAR KBAD 062106Z 22008KT 10SM BKN015 24/18 A2995 RMK AO2A SLP145
14:55
M
25 °C 10 mi 2.800 ft 220° 220° 9 kt METAR KBAD 062055Z AUTO 22009KT 10SM BKN028 OVC036 25/18 A2994 RMK AO2 SLP141 T02450179 55003
13:55
V
25 °C 10 mi 4.000 ft 190° 190° 10 kt METAR KBAD 061955Z AUTO 19010KT 10SM SCT030 OVC040 25/18 A2993 RMK AO2 SLP138 T02450182
13:05
V
24 °C 10 mi 3.500 ft 200° 200° 11 kt METAR KBAD 061905Z AUTO 20011KT 10SM FEW027 OVC035 24/18 A2994 RMK AO2 SLP141
12:55
M
24 °C 10 mi 2.700 ft 210° 210° 9 kt METAR KBAD 061855Z AUTO 21009KT 10SM BKN027 OVC035 24/18 A2993 RMK AO2 CIG 027V035 BKN V SCT SLP138 T02400182
12:45
V
24 °C 10 mi 3.500 ft 190° 190° 11 kt METAR KBAD 061845Z AUTO 19011KT 10SM SCT027 OVC035 24/18 A2994 RMK AO2 SLP141
11:55
M
24 °C 10 mi 2.400 ft 190° 190° 15 kt METAR KBAD 061755Z AUTO 19015KT 10SM BKN024 BKN035 24/18 A2995 RMK AO2 BKN024 V OVC SLP145 60000 T02410183 10242 20203 58002
10:55
M
24 °C 10 mi 1.700 ft 200° 200° 10 kt METAR KBAD 061655Z AUTO 20010KT 10SM OVC017 24/19 A2998 RMK AO2 SLP155 T02360187 VISNO RWY33 $
09:55
M
22 °C 10 mi 1.600 ft 210° 210° 8 kt METAR KBAD 061555Z 21008KT 10SM OVC016 22/19 A2998 RMK AO2A SLP155 T02230185
09:35
M
22 °C 10 mi 1.500 ft 210° 210° 7 kt METAR KBAD 061535Z 21007KT 10SM OVC015 22/18 A2998 RMK AO2A SLP155
08:55
M
21 °C 10 mi 1.400 ft 180° 180° 11 kt METAR KBAD 061455Z 18011KT 10SM OVC014 21/18 A2996 RMK AO2A SLP148 60000 T02120182 52020
07:55
M
21 °C 10 mi 1.300 ft 180° 180° 8 kt METAR KBAD 061355Z AUTO 18008KT 10SM OVC013 21/18 A2994 RMK AO2 SLP142 T02060180
06:55
M
21 °C 10 mi 1.400 ft 180° 180° 9 kt METAR KBAD 061255Z AUTO 18009KT 10SM OVC014 21/18 A2992 RMK AO2 RAB20E29 SLP135 P0000 T02050181
06:39
M
21 °C 10 mi 1.400 ft 180° 180° 10 kt METAR KBAD 061239Z AUTO 18010KT 10SM OVC014 21/18 A2991 RMK AO2 RAB20E29 SLP131
06:29
M
21 °C 10 mi 1.500 ft 180° 180° 9 kt METAR KBAD 061229Z AUTO 18009KT 10SM OVC015 21/18 A2991 RMK AO2 RAB20E29 CIG 014 RWY33 SLP131
06:20
M
20 °C 10 mi 1.500 ft 180° 180° 9 kt METAR KBAD 061220Z AUTO 18009KT 10SM -RA OVC015 20/18 A2991 RMK AO2 RAB20 CIG 014 RWY33 SLP131
05:55
M
20 °C 10 mi 1.600 ft 180° 180° 7 kt METAR KBAD 061155Z AUTO 18007KT 10SM OVC016 20/18 A2990 RMK AO2 RAB17E26DZB26E39 SLP128 P0000 60000 T02030177 10210 20203 53001
05:39
M
21 °C 10 mi 1.600 ft 170° 170° 8 kt METAR KBAD 061139Z AUTO 17008KT 10SM OVC016 21/18 A2990 RMK AO2 RAB17E26DZB26E39 SLP128
05:17
M
21 °C 10 mi 1.700 ft 190° 190° 6 kt METAR KBAD 061117Z AUTO 19006KT 10SM -RA OVC017 21/18 A2989 RMK AO2 RAB17 SLP125
04:55
M
21 °C 10 mi 1.900 ft 190° 190° 8 kt METAR KBAD 061055Z AUTO 19008KT 10SM OVC019 21/17 A2989 RMK AO2 SLP125 T02090173
03:55
M
21 °C 10 mi 1.900 ft 190° 190° 6 kt METAR KBAD 060955Z AUTO 19006KT 10SM OVC019 21/17 A2989 RMK AO2 SLP125 T02070173
03:45
M
21 °C 10 mi 1.900 ft 180° 180° 7 kt SPECI KBAD 060945Z AUTO 18007KT 10SM OVC019 21/17 A2989 RMK AO2 SLP125
02:55
M
21 °C 10 mi 2.100 ft 200° 200° 7 kt METAR KBAD 060855Z AUTO 20007KT 10SM OVC021 21/17 A2990 RMK AO2 RAE0759 SLP128 P0000 60000 T02080174 52010
01:59
M
21 °C 10 mi 2.100 ft 200° 200° 6 kt METAR KBAD 060759Z AUTO 20006KT 10SM BKN021 21/18 A2989 RMK AO2 RAE59 SLP125
01:55
M
21 °C 10 mi 2.100 ft 200° 200° 7 kt METAR KBAD 060755Z AUTO 20007KT 10SM -RA BKN021 21/18 A2989 RMK AO2 RAB49 SLP125 P0000 T02050177
01:05
M
21 °C 10 mi 1.600 ft 200° 200° 8 kt METAR KBAD 060705Z AUTO 20008KT 10SM OVC016 21/18 A2988 RMK AO2 SLP121
00:55
M
21 °C 10 mi 1.400 ft 200° 200° 9 kt METAR KBAD 060655Z AUTO 20009KT 10SM OVC014 21/18 A2988 RMK AO2 RAB19E28 SLP121 P0000 T02080180
00:28
M
21 °C 10 mi 1.400 ft 190° 190° 9 kt METAR KBAD 060628Z AUTO 19009KT 10SM OVC014 21/18 A2987 RMK AO2 RAB19E28 SLP118
00:19
M
21 °C 10 mi 1.400 ft 190° 190° 10 kt METAR KBAD 060619Z AUTO 19010KT 10SM -RA OVC014 21/18 A2987 RMK AO2 RAB19 SLP118
00:05
M
21 °C 10 mi 1.400 ft 190° 190° 9 kt METAR KBAD 060605Z AUTO 19009KT 10SM OVC014 21/18 A2987 RMK AO2 SLP118

2022年12月5日

时间 代码 天气 温度 能见度 天花板 METAR/SPECI
23:55
M
21 °C 10 mi 1.500 ft 200° 200° 8 kt METAR KBAD 060555Z AUTO 20008KT 10SM BKN015 21/18 A2987 RMK AO2 SLP118 T02100182 10211 20196 402350110 52010
22:55
V
21 °C 10 mi - 200° 200° 10 kt METAR KBAD 060455Z AUTO 20010KT 10SM SCT220 21/18 A2986 RMK AO2 SLP115 T02110183
21:55
V
21 °C 10 mi - 180° 180° 9 kt METAR KBAD 060355Z AUTO 18009KT 10SM CLR 21/18 A2984 RMK AO2 SLP108 T02080182
20:56
V
21 °C 10 mi - 190° 190° 9 kt METAR KBAD 060256Z AUTO 19009KT 10SM CLR 21/18 A2984 RMK AO2 SLP108 T02090181 53000
19:55
V
21 °C 10 mi - 180° 180° 10 kt METAR KBAD 060155Z AUTO 18010KT 10SM CLR 21/18 A2984 RMK AO2 SLP108 T02060180
18:55
V
20 °C 10 mi - 170° 170° 7 kt METAR KBAD 060055Z AUTO 17007KT 10SM CLR 20/18 A2983 RMK AO2 SLP105 T01970175
17:55
V
21 °C 10 mi - 170° 170° 8 kt METAR KBAD 052355Z AUTO 17008KT 10SM SCT180 21/17 A2983 RMK AO2 RAB01E10 SLP105 P0000 60000 T02050171 10235 20205 58001
17:10
V
23 °C 10 mi 5.000 ft 200° 200° 7 kt METAR KBAD 052310Z AUTO 20007KT 10SM BKN050 23/18 A2983 RMK AO2 RAB01E10 SLP105
17:01
V
23 °C 10 mi 4.800 ft 200° 200° 8 kt METAR KBAD 052301Z AUTO 20008KT 10SM -RA BKN048 23/18 A2983 RMK AO2 RAB01 SLP105
16:55
V
23 °C 10 mi 4.800 ft 190° 190° 10 kt METAR KBAD 052255Z AUTO 19010KT 10SM OVC048 23/18 A2983 RMK AO2 RAB00E08 SLP105 P0000 T02330177
16:08
V
23 °C 10 mi 5.000 ft 200° 200° 9 kt METAR KBAD 052208Z AUTO 20009KT 10SM SCT029 SCT034 OVC050 23/18 A2984 RMK AO2 RAB00E08 SLP108
16:00
V
24 °C 10 mi 3.400 ft 200° 200° 10 kt METAR KBAD 052200Z AUTO 20010KT 10SM -RA SCT027 BKN034 OVC050 24/18 A2984 RMK AO2 RAB00 SLP108
15:55
M
23 °C 10 mi 2.700 ft 210° 210° 9 kt METAR KBAD 052155Z AUTO 21009KT 10SM BKN027 BKN035 OVC050 23/18 A2984 RMK AO2 SLP108 T02330179
14:55
M
23 °C 10 mi 2.200 ft 200° 200° 10 kt METAR KBAD 052055Z AUTO 20010KT 10SM OVC022 23/18 A2984 RMK AO2 SLP108 T02330182 57019
13:55
M
23 °C 10 mi 2.200 ft 220° 220° 10 kt METAR KBAD 051955Z AUTO 22010KT 10SM OVC022 23/18 A2985 RMK AO2 SLP111 T02260179
13:45
M
22 °C 10 mi 2.200 ft 210° 210° 10 kt SPECI KBAD 051945Z AUTO 21010KT 10SM OVC022 22/18 A2985 RMK AO2 SLP112
12:55
M
22 °C 10 mi 1.500 ft 210° 210° 10 kt METAR KBAD 051855Z AUTO 21010KT 10SM OVC015 22/18 A2987 RMK AO2 SLP118 T02170181
12:45
M
21 °C 10 mi 1.500 ft 210° 210° 9 kt SPECI KBAD 051845Z 21009KT 10SM OVC015 21/18 A2987 RMK AO2A SLP118
11:55
M
21 °C 10 mi 1.100 ft 200° 200° 7 kt METAR KBAD 051755Z 20007KT 10SM OVC011 21/18 A2989 RMK AO2A SLP125 T02050177 10205 20126 58016
10:55
M
20 °C 10 mi 1.100 ft 200° 200° 10 kt METAR KBAD 051655Z 20010KT 10SM OVC011 20/17 A2993 RMK AO2A T01990173
10:04
M
19 °C 10 mi 1.000 ft 200° 200° 8 kt METAR KBAD 051604Z 20008KT 10SM OVC010 19/17 A2995 RMK SLP146
09:55
I
19 °C 10 mi 900 ft 200° 200° 8 kt METAR KBAD 051555Z 20008KT 10SM OVC009 19/17 A2995 RMK AO2A SLP146 T01900170
09:36
I
19 °C 10 mi 800 ft 190° 190° 10 kt METAR KBAD 051536Z 19010KT 10SM OVC008 19/17 A2995 RMK AO2A SLP146
09:09
I
18 °C 10 mi 700 ft 190° 190° 10 kt METAR KBAD 051509Z 19010KT 10SM OVC007 18/17 A2994 RMK AO2A SLP142
08:55
I
17 °C 10 mi 600 ft 170° 170° 10 kt METAR KBAD 051455Z 17010KT 10SM OVC006 17/16 A2994 RMK AO2A VIS 2 1/4 RWY33 SLP142 60000 T01650155 57006
08:35
I
16 °C 10 mi 500 ft 180° 180° 8 kt METAR KBAD 051435Z AUTO 18008KT 10SM OVC005 16/15 A2995 RMK AO2 VIS 2 1/4 RWY33 SLP146
08:15
L
15 °C 10 mi 400 ft 180° 180° 4 kt METAR KBAD 051415Z AUTO 18004KT 10SM OVC004 15/14 A2995 RMK AO2 VIS 2 RWY33 SLP146
07:55
L
14 °C 10 mi 300 ft 160° 160° 4 kt METAR KBAD 051355Z AUTO 16004KT 10SM OVC003 14/13 A2995 RMK AO2 VIS 2 1/4 RWY33 RAE17RAB21E30 SLP146 P0000 T01400129
07:30
L
13 °C 10 mi 300 ft Var 000° 0 kt METAR KBAD 051330Z AUTO 00000KT 10SM OVC003 13/12 A2995 RMK AO2 VIS 2 3/4 RWY33 RAE17RAB21E30 SLP146
07:21
L
13 °C 10 mi 300 ft 160° 160° 4 kt METAR KBAD 051321Z AUTO 16004KT 10SM -RA OVC003 13/12 A2995 RMK AO2 RAE17RAB21 SLP146
07:17
L
13 °C 10 mi 300 ft 160° 160° 3 kt METAR KBAD 051317Z AUTO 16003KT 10SM OVC003 13/12 A2995 RMK AO2 RAE17 SLP146
06:55
L
13 °C 10 mi 300 ft Var 000° 0 kt METAR KBAD 051255Z AUTO 00000KT 10SM -RA OVC003 13/12 A2996 RMK AO2 RAB44 SLP149 P0000 T01290115
06:44
L
13 °C 10 mi 300 ft Var 000° 0 kt METAR KBAD 051244Z 00000KT 10SM -RA OVC003 13/11 A2996 RMK AO2A RAB44 SLP149
06:15
L
13 °C 10 mi 400 ft Var 000° 0 kt METAR KBAD 051215Z AUTO 00000KT 10SM OVC004 13/11 A2996 RMK AO2 SLP149
05:55
I
13 °C 10 mi 500 ft Var 000° 0 kt METAR KBAD 051155Z AUTO 00000KT 10SM OVC005 13/11 A2996 RMK AO2 SLP149 60000 T01250111 10126 20110 57015
05:16
I
12 °C 10 mi 500 ft Var 000° 0 kt METAR KBAD 051116Z AUTO 00000KT 10SM OVC005 12/11 A2996 RMK AO2 SLP149
04:56
I
12 °C 10 mi 600 ft Var 000° 0 kt METAR KBAD 051056Z AUTO 00000KT 10SM OVC006 12/11 A2996 RMK AO2 SLP149
04:55
I
12 °C 10 mi 700 ft Var 000° 0 kt METAR KBAD 051055Z AUTO 00000KT 10SM OVC007 12/11 A2996 RMK AO2 RAE01 SLP149 P0000 T01230107
04:31
I
12 °C 10 mi 700 ft Var 000° 0 kt METAR KBAD 051031Z AUTO 00000KT 10SM OVC007 12/11 A2998 RMK AO2 RAE01 SLP156
04:01
I
12 °C 10 mi 800 ft Var 000° 0 kt METAR KBAD 051001Z AUTO 00000KT 10SM OVC008 12/10 A2999 RMK AO2 RAE01 SLP159
03:55
I
12 °C 10 mi 900 ft Var 000° 0 kt METAR KBAD 050955Z AUTO 00000KT 10SM -RA OVC009 12/10 A2998 RMK AO2 RAB08E26RAB52 CIG 008 RWY33 SLP156 P0000 T01230104

我们和第三方通过cookies跟踪您在我们网站上的互联网行为。如果你继续,我们认为你同意我们的饼干政策